Watson, Minnesota
Current Conditions -  °F | °C
As of 8:54 PM on Sunday 23 Nov 2014 (Local Time) from KMVE Reporting Station
Overcast Overcast  
Wind Chill: 14°   Ceiling: 2000
Heat Index: 28°   Visibility: 10mi
Dew Point: 25°   Wind: 23mph
Humidity: 86%   Direction: 360°N
Pressure: 29.51"   Gusts: 28mph
Location:  45.01°N, 95.8°W
Report Text: KMVE 240254Z AUTO 36020G24KT 10SM BKN020 OVC025 M02/M04 A2951 RMK AO2
Loading
Personal Weather Stations






























Interactive Weather Map New forecast layout! Learn more

10-Day Weather Forecast

Advertisements
Track Severe Weather on mobile